Time;durP1;ratioP1;P1;durP2;ratioP2;P2;SDS_P1;SDS_P2;PMS_P1;PMS_P2;Temp;Humidity;BMP_temperature;BMP_pressure;BME280_temperature;BME280_humidity;BME280_pressure;Samples;Min_cycle;Max_cycle;Signal;HPM_P1;HPM_P2
2021/09/11 00:00:19;;;;;;;9.90;8.27;;;19.40;99.90;;;;;;4975994;28;20222;-65
2021/09/11 00:02:46;;;;;;;12.40;10.33;;;19.40;99.90;;;;;;4992827;28;20442;-65
2021/09/11 00:05:13;;;;;;;10.43;9.00;;;19.40;99.90;;;;;;4995443;28;20641;-66
2021/09/11 00:07:39;;;;;;;9.70;8.73;;;19.40;99.90;;;;;;4994952;28;20418;-65
2021/09/11 00:10:06;;;;;;;12.87;10.70;;;19.40;99.90;;;;;;4995343;28;20921;-65
2021/09/11 00:12:33;;;;;;;9.10;8.20;;;19.30;99.90;;;;;;4978379;28;20266;-66
2021/09/11 00:14:58;;;;;;;12.90;8.97;;;19.40;99.90;;;;;;4975786;28;20380;-64
2021/09/11 00:17:24;;;;;;;10.83;8.43;;;19.40;99.90;;;;;;4975464;28;20410;-66
2021/09/11 00:19:50;;;;;;;12.23;9.80;;;19.40;99.90;;;;;;4975609;28;20551;-67
2021/09/11 00:22:15;;;;;;;11.37;9.40;;;19.40;99.90;;;;;;4989241;28;20542;-68
2021/09/11 00:24:41;;;;;;;10.23;8.57;;;19.40;99.90;;;;;;4995225;28;20167;-66
2021/09/11 00:27:07;;;;;;;10.33;8.83;;;19.40;99.90;;;;;;4990768;28;20503;-64
2021/09/11 00:29:32;;;;;;;10.33;9.23;;;19.30;99.90;;;;;;4975267;28;20192;-65
2021/09/11 00:31:59;;;;;;;9.33;8.30;;;19.30;99.90;;;;;;4968409;28;20191;-66
2021/09/11 00:34:24;;;;;;;10.53;8.27;;;19.30;99.90;;;;;;4995244;28;20218;-66
2021/09/11 00:36:50;;;;;;;9.70;8.23;;;19.30;99.90;;;;;;4994387;28;20411;-64
2021/09/11 00:39:16;;;;;;;9.77;8.30;;;19.30;99.90;;;;;;4977848;28;20614;-66
2021/09/11 00:41:42;;;;;;;8.90;8.00;;;19.30;99.90;;;;;;4975003;28;20504;-64
2021/09/11 00:44:07;;;;;;;10.70;8.83;;;19.30;99.90;;;;;;4975145;28;20434;-66
2021/09/11 00:46:33;;;;;;;11.43;7.77;;;19.30;99.90;;;;;;4975018;28;20378;-65
2021/09/11 00:48:59;;;;;;;10.37;7.70;;;19.30;99.90;;;;;;4981131;28;20192;-66
2021/09/11 00:51:25;;;;;;;8.80;7.37;;;19.30;99.90;;;;;;4975300;28;20168;-64
2021/09/11 00:53:51;;;;;;;9.00;7.60;;;19.30;99.90;;;;;;4974829;28;20292;-67
2021/09/11 00:56:16;;;;;;;9.30;7.67;;;19.30;99.90;;;;;;4975248;28;20263;-65
2021/09/11 00:58:43;;;;;;;9.30;8.07;;;19.30;99.90;;;;;;4967613;28;20461;-66
2021/09/11 01:01:09;;;;;;;8.57;7.73;;;19.20;99.90;;;;;;4994555;28;20634;-65
2021/09/11 01:03:34;;;;;;;10.40;8.33;;;19.20;99.90;;;;;;4994396;28;20396;-66
2021/09/11 01:06:01;;;;;;;9.20;8.20;;;19.10;99.90;;;;;;4994457;28;20179;-67
2021/09/11 01:08:27;;;;;;;8.27;6.83;;;19.20;99.90;;;;;;4988454;28;20802;-65
2021/09/11 01:10:53;;;;;;;8.80;7.90;;;19.20;99.90;;;;;;4974797;28;20435;-66
2021/09/11 01:13:19;;;;;;;12.47;9.17;;;19.10;99.90;;;;;;4974755;28;20891;-66
2021/09/11 01:15:45;;;;;;;8.53;7.70;;;19.10;99.90;;;;;;4974502;28;20204;-65
2021/09/11 01:18:14;;;;;;;9.77;8.70;;;19.10;99.90;;;;;;4974644;28;20489;-67
2021/09/11 01:20:40;;;;;;;9.77;8.20;;;19.00;99.90;;;;;;4974860;28;20769;-66
2021/09/11 01:23:06;;;;;;;11.17;8.97;;;19.00;99.90;;;;;;4974733;28;20411;-66
2021/09/11 01:25:32;;;;;;;9.47;7.80;;;19.00;99.90;;;;;;4974772;28;20189;-66
2021/09/11 01:27:58;;;;;;;11.87;9.30;;;18.90;99.90;;;;;;4965421;28;20918;-65
2021/09/11 01:30:24;;;;;;;10.37;8.20;;;18.80;99.90;;;;;;4974375;28;20530;-64
2021/09/11 01:32:50;;;;;;;9.00;7.63;;;18.70;99.90;;;;;;4974619;28;20538;-66
2021/09/11 01:35:17;;;;;;;13.07;9.27;;;18.70;99.90;;;;;;4974492;28;20631;-65
2021/09/11 01:37:43;;;;;;;9.10;8.10;;;18.70;99.90;;;;;;4974936;28;20917;-65
2021/09/11 01:40:10;;;;;;;9.97;8.97;;;18.60;99.90;;;;;;4973538;28;20829;-65
2021/09/11 01:42:36;;;;;;;9.93;8.40;;;18.60;99.90;;;;;;4974654;28;20452;-67
2021/09/11 01:45:10;;;;;;;12.10;9.07;;;18.50;99.90;;;;;;4974400;28;20411;-67
2021/09/11 01:47:37;;;;;;;10.00;8.67;;;18.40;99.90;;;;;;4981168;28;20434;-65
2021/09/11 01:50:04;;;;;;;10.13;8.40;;;18.40;99.90;;;;;;4975402;28;20518;-67
2021/09/11 01:52:30;;;;;;;9.97;8.27;;;18.40;99.90;;;;;;4978329;28;20462;-65
2021/09/11 01:54:56;;;;;;;9.03;8.10;;;18.40;99.90;;;;;;4978194;28;20404;-64
2021/09/11 01:57:21;;;;;;;9.30;8.40;;;18.50;99.90;;;;;;4991251;28;20178;-67
2021/09/11 01:59:47;;;;;;;11.30;8.40;;;18.50;99.90;;;;;;4997469;28;20676;-64
2021/09/11 02:02:12;;;;;;;9.20;8.40;;;18.50;99.90;;;;;;4972583;28;20186;-67
2021/09/11 02:04:38;;;;;;;8.90;8.00;;;18.60;99.90;;;;;;4977515;28;20550;-65
2021/09/11 02:07:05;;;;;;;10.23;7.63;;;18.60;99.90;;;;;;4988560;28;20194;-67
2021/09/11 02:09:33;;;;;;;8.23;7.07;;;18.60;99.90;;;;;;4997256;28;20674;-65
2021/09/11 02:11:59;;;;;;;9.40;7.33;;;18.60;99.90;;;;;;4997280;28;20456;-65
2021/09/11 02:14:25;;;;;;;9.47;8.10;;;18.60;99.90;;;;;;4979845;28;20410;-66
2021/09/11 02:16:51;;;;;;;9.30;8.17;;;18.60;99.90;;;;;;4987325;28;20781;-64
2021/09/11 02:19:17;;;;;;;8.90;7.60;;;18.70;99.90;;;;;;4977760;28;20611;-66
2021/09/11 02:21:43;;;;;;;9.50;7.63;;;18.70;99.90;;;;;;4977938;28;20625;-65
2021/09/11 02:24:09;;;;;;;7.17;6.33;;;18.70;99.90;;;;;;4977694;28;20172;-65
2021/09/11 02:26:35;;;;;;;7.00;6.30;;;18.70;99.90;;;;;;4982124;28;20420;-67
2021/09/11 02:29:02;;;;;;;6.57;5.87;;;18.80;99.90;;;;;;4996526;28;20430;-66
2021/09/11 02:31:28;;;;;;;6.40;5.80;;;18.80;99.90;;;;;;4991654;28;20512;-65
2021/09/11 02:33:53;;;;;;;8.10;6.30;;;18.80;99.90;;;;;;4977398;28;20441;-66
2021/09/11 02:36:19;;;;;;;7.33;6.30;;;18.80;99.90;;;;;;4982492;28;20171;-65
2021/09/11 02:38:46;;;;;;;7.57;6.30;;;18.80;99.90;;;;;;4996530;28;20646;-65
2021/09/11 02:41:12;;;;;;;7.40;6.00;;;18.70;99.90;;;;;;4997149;28;20181;-65
2021/09/11 02:43:38;;;;;;;6.93;5.97;;;18.80;99.90;;;;;;4996807;28;20418;-66
2021/09/11 02:46:03;;;;;;;7.40;6.40;;;18.80;99.90;;;;;;4993090;28;20256;-65
2021/09/11 02:48:29;;;;;;;6.10;5.50;;;18.70;99.90;;;;;;4976825;28;20792;-66
2021/09/11 02:50:55;;;;;;;7.37;6.50;;;18.80;99.90;;;;;;4959834;28;20262;-65
2021/09/11 02:53:20;;;;;;;5.87;5.37;;;18.80;99.90;;;;;;4977076;28;20199;-65
2021/09/11 02:55:46;;;;;;;6.07;5.43;;;18.80;99.90;;;;;;4977205;28;20164;-65
2021/09/11 02:58:12;;;;;;;6.27;5.70;;;18.80;99.90;;;;;;4978868;28;20219;-64
2021/09/11 03:00:37;;;;;;;6.73;5.20;;;18.90;99.90;;;;;;4976158;28;20169;-65
2021/09/11 03:03:03;;;;;;;5.73;4.93;;;18.80;99.90;;;;;;4977153;28;20175;-65
2021/09/11 03:05:29;;;;;;;5.47;4.97;;;18.80;99.90;;;;;;4976721;28;20191;-66
2021/09/11 03:07:54;;;;;;;8.23;6.17;;;18.80;99.90;;;;;;4993208;28;20274;-65
2021/09/11 03:10:20;;;;;;;6.70;6.00;;;18.90;99.90;;;;;;4996453;28;20229;-67
2021/09/11 03:12:46;;;;;;;6.20;5.60;;;18.90;99.90;;;;;;4996300;28;20288;-65
2021/09/11 03:15:12;;;;;;;5.73;4.93;;;18.90;99.90;;;;;;4995341;28;20661;-65
2021/09/11 03:17:38;;;;;;;5.67;5.10;;;18.90;99.90;;;;;;4989549;28;20225;-66
2021/09/11 03:20:05;;;;;;;4.47;4.07;;;18.90;99.90;;;;;;4996023;28;20479;-65
2021/09/11 03:22:31;;;;;;;5.70;5.00;;;18.90;99.90;;;;;;4996978;28;20417;-64
2021/09/11 03:24:56;;;;;;;5.90;5.40;;;18.90;99.90;;;;;;4985487;28;20781;-64
2021/09/11 03:27:22;;;;;;;5.47;4.90;;;18.90;99.90;;;;;;4989098;28;20715;-66
2021/09/11 03:29:48;;;;;;;5.83;5.23;;;18.90;99.90;;;;;;4995862;28;20535;-65
2021/09/11 03:32:13;;;;;;;5.63;4.93;;;18.90;99.90;;;;;;4995755;28;20661;-66
2021/09/11 03:34:39;;;;;;;5.43;4.87;;;18.90;99.90;;;;;;4996011;28;20179;-65
2021/09/11 03:37:05;;;;;;;5.20;4.60;;;18.90;99.90;;;;;;4967340;28;20186;-65
2021/09/11 03:39:30;;;;;;;5.63;5.07;;;18.90;99.90;;;;;;4975605;28;20203;-66
2021/09/11 03:41:56;;;;;;;6.17;5.30;;;18.90;99.90;;;;;;4976481;28;20176;-65
2021/09/11 03:44:22;;;;;;;6.40;5.20;;;18.90;99.90;;;;;;4958879;28;20176;-65
2021/09/11 03:46:48;;;;;;;6.30;4.80;;;18.90;99.90;;;;;;4975628;28;20180;-65
2021/09/11 03:49:13;;;;;;;5.43;4.93;;;18.90;99.90;;;;;;4975871;28;20240;-64
2021/09/11 03:51:39;;;;;;;5.53;5.07;;;18.90;99.90;;;;;;4976028;28;20169;-64
2021/09/11 03:54:05;;;;;;;5.90;4.80;;;18.90;99.90;;;;;;4975398;28;20207;-66
2021/09/11 03:56:30;;;;;;;5.83;4.80;;;18.90;99.90;;;;;;4983938;28;20417;-64
2021/09/11 03:58:56;;;;;;;5.23;4.73;;;18.90;99.90;;;;;;4995020;28;20289;-66
2021/09/11 04:01:22;;;;;;;4.90;4.50;;;18.90;99.90;;;;;;4995292;28;20175;-64
2021/09/11 04:03:48;;;;;;;5.40;4.83;;;19.00;99.90;;;;;;4995697;28;20175;-64
2021/09/11 04:06:13;;;;;;;4.73;3.97;;;18.90;99.90;;;;;;4989095;28;20196;-64
2021/09/11 04:08:39;;;;;;;5.77;5.10;;;19.00;99.90;;;;;;4974504;28;20196;-66
2021/09/11 04:11:05;;;;;;;6.93;4.70;;;19.00;99.90;;;;;;4975389;28;20419;-67
2021/09/11 04:13:33;;;;;;;4.37;3.87;;;19.00;99.90;;;;;;4974904;28;20233;-65
2021/09/11 04:15:58;;;;;;;3.83;3.53;;;19.00;99.90;;;;;;4979144;28;20999;-66
2021/09/11 04:18:24;;;;;;;4.90;4.50;;;19.00;99.90;;;;;;4994648;28;20489;-66
2021/09/11 04:20:50;;;;;;;5.33;4.73;;;19.00;99.90;;;;;;4995165;28;20171;-67
2021/09/11 04:23:15;;;;;;;5.10;4.50;;;18.90;99.90;;;;;;4990119;28;20283;-64
2021/09/11 04:25:41;;;;;;;5.20;4.70;;;18.90;99.90;;;;;;4976579;28;20178;-66
2021/09/11 04:28:07;;;;;;;5.03;4.63;;;18.80;99.90;;;;;;4994498;28;20207;-66
2021/09/11 04:30:33;;;;;;;6.43;5.60;;;18.80;99.90;;;;;;4994713;28;20415;-66
2021/09/11 04:32:58;;;;;;;8.60;6.20;;;18.80;99.90;;;;;;4969603;28;20609;-66
2021/09/11 04:35:24;;;;;;;8.87;6.97;;;18.80;99.90;;;;;;4975595;28;20647;-67
2021/09/11 04:37:50;;;;;;;7.60;6.87;;;18.70;99.90;;;;;;4974629;28;20176;-67
2021/09/11 04:40:16;;;;;;;8.83;7.33;;;18.60;99.90;;;;;;4957990;28;20225;-66
2021/09/11 04:42:41;;;;;;;8.00;6.97;;;18.60;99.90;;;;;;4979483;28;20852;-65
2021/09/11 04:45:08;;;;;;;7.30;6.60;;;18.50;99.90;;;;;;4994698;28;20515;-65
2021/09/11 04:47:33;;;;;;;6.50;5.80;;;18.50;99.90;;;;;;4993952;28;20211;-68
2021/09/11 04:49:59;;;;;;;8.83;7.23;;;18.50;99.90;;;;;;4994303;28;20484;-65
2021/09/11 04:52:25;;;;;;;8.10;6.50;;;18.50;99.90;;;;;;4992163;28;20206;-66
2021/09/11 04:54:50;;;;;;;7.90;7.10;;;18.50;99.90;;;;;;4957400;28;20545;-65
2021/09/11 04:57:16;;;;;;;7.87;7.07;;;18.50;99.90;;;;;;4974618;28;20167;-67
2021/09/11 04:59:42;;;;;;;8.00;7.00;;;18.50;99.90;;;;;;4974769;28;20194;-65
2021/09/11 05:02:07;;;;;;;9.03;7.17;;;18.40;99.90;;;;;;4974948;28;20587;-66
2021/09/11 05:04:33;;;;;;;11.27;7.50;;;18.40;99.90;;;;;;4992366;28;20687;-66
2021/09/11 05:06:59;;;;;;;9.73;8.70;;;18.40;99.90;;;;;;4969454;28;20280;-66
2021/09/11 05:09:25;;;;;;;12.70;9.20;;;18.40;99.90;;;;;;4973912;28;20222;-65
2021/09/11 05:11:51;;;;;;;9.33;7.83;;;18.40;99.90;;;;;;4974616;28;20494;-65
2021/09/11 05:14:17;;;;;;;10.67;8.50;;;18.30;99.90;;;;;;4989848;28;20424;-66
2021/09/11 05:16:43;;;;;;;10.70;8.27;;;18.30;99.90;;;;;;4993638;28;20732;-65
2021/09/11 05:19:08;;;;;;;9.50;8.47;;;18.30;99.90;;;;;;4993775;28;20194;-66
2021/09/11 05:21:34;;;;;;;11.23;9.17;;;18.30;99.90;;;;;;4993963;28;20170;-67
2021/09/11 05:24:00;;;;;;;9.13;7.30;;;18.30;99.90;;;;;;4987799;28;20179;-66
2021/09/11 05:26:26;;;;;;;10.20;8.37;;;18.30;99.90;;;;;;4993704;28;20175;-65
2021/09/11 05:28:51;;;;;;;9.40;8.10;;;18.30;99.90;;;;;;4993358;28;20194;-65
2021/09/11 05:31:17;;;;;;;9.50;8.20;;;18.20;99.90;;;;;;4993771;28;20784;-65
2021/09/11 05:33:43;;;;;;;14.00;9.10;;;18.30;99.90;;;;;;4982020;28;20253;-66
2021/09/11 05:36:08;;;;;;;10.07;8.90;;;18.30;99.90;;;;;;4973862;28;20536;-66
2021/09/11 05:38:34;;;;;;;9.77;8.60;;;18.30;99.90;;;;;;4973601;28;20193;-67
2021/09/11 05:41:00;;;;;;;14.10;9.60;;;18.20;99.90;;;;;;4974600;28;20208;-66
2021/09/11 05:43:25;;;;;;;15.60;9.27;;;18.10;99.90;;;;;;4957081;28;20678;-66
2021/09/11 05:45:51;;;;;;;9.63;8.30;;;18.20;99.90;;;;;;4974106;28;20420;-66
2021/09/11 05:48:17;;;;;;;10.27;8.33;;;18.20;99.90;;;;;;4973668;28;20206;-65
2021/09/11 05:50:43;;;;;;;8.93;8.00;;;18.20;99.90;;;;;;4974245;28;20432;-67
2021/09/11 05:53:09;;;;;;;10.00;7.63;;;18.20;99.90;;;;;;4974128;28;20820;-65
2021/09/11 05:55:35;;;;;;;9.20;8.20;;;18.20;99.90;;;;;;4974317;28;20181;-66
2021/09/11 05:58:01;;;;;;;9.63;8.63;;;18.20;99.90;;;;;;4973494;28;20276;-66
2021/09/11 06:00:26;;;;;;;7.43;6.63;;;18.20;99.90;;;;;;4973513;28;20399;-66
2021/09/11 06:02:52;;;;;;;8.50;7.20;;;18.20;99.90;;;;;;4973098;28;20550;-65
2021/09/11 06:05:18;;;;;;;10.23;8.57;;;18.20;99.90;;;;;;4973965;28;20210;-66
2021/09/11 06:07:43;;;;;;;13.47;7.17;;;18.20;99.90;;;;;;4973625;28;20179;-66
2021/09/11 06:10:10;;;;;;;9.93;7.73;;;18.10;99.90;;;;;;4974171;28;20452;-65
2021/09/11 06:12:35;;;;;;;9.00;7.37;;;18.10;99.90;;;;;;4975876;28;20612;-66
2021/09/11 06:15:01;;;;;;;8.27;6.47;;;18.20;99.90;;;;;;4956620;28;20436;-65
2021/09/11 06:17:27;;;;;;;15.83;7.43;;;18.20;99.90;;;;;;4973195;28;20176;-65
2021/09/11 06:19:52;;;;;;;8.73;7.03;;;18.10;99.90;;;;;;4974504;28;20289;-63
2021/09/11 06:22:18;;;;;;;9.93;7.67;;;18.20;99.90;;;;;;4988253;28;20263;-63
2021/09/11 06:24:44;;;;;;;7.57;6.87;;;18.10;99.90;;;;;;4993257;28;20189;-63
2021/09/11 06:27:09;;;;;;;10.07;7.27;;;18.20;99.90;;;;;;4992454;28;20306;-64
2021/09/11 06:29:36;;;;;;;10.47;8.23;;;18.20;99.90;;;;;;4976697;28;20211;-64
2021/09/11 06:32:02;;;;;;;9.13;7.13;;;18.20;99.90;;;;;;4974082;28;20214;-66
2021/09/11 06:34:28;;;;;;;8.43;7.47;;;18.30;99.90;;;;;;4973367;28;20418;-66
2021/09/11 06:36:53;;;;;;;7.93;7.10;;;18.30;99.90;;;;;;4976126;28;20455;-61
2021/09/11 06:39:19;;;;;;;8.10;7.30;;;18.30;99.90;;;;;;4977093;28;20206;-64
2021/09/11 06:41:45;;;;;;;9.53;7.20;;;18.30;99.90;;;;;;4977142;28;20186;-62
2021/09/11 06:44:10;;;;;;;8.97;7.70;;;18.30;99.90;;;;;;4978031;28;20182;-62
2021/09/11 06:46:36;;;;;;;16.30;11.60;;;18.30;99.90;;;;;;4992974;28;20657;-64
2021/09/11 06:49:03;;;;;;;7.60;6.80;;;18.40;99.90;;;;;;4983434;28;20199;-63
2021/09/11 06:51:29;;;;;;;9.13;6.93;;;18.50;99.90;;;;;;4976464;28;20911;-62
2021/09/11 06:53:54;;;;;;;7.63;6.60;;;18.50;99.90;;;;;;4976827;28;20557;-65
2021/09/11 06:56:20;;;;;;;7.03;6.33;;;18.60;99.90;;;;;;4976697;28;20416;-64
2021/09/11 06:58:46;;;;;;;8.33;5.83;;;18.60;99.90;;;;;;4976622;28;20273;-64
2021/09/11 07:01:11;;;;;;;8.23;6.50;;;18.70;99.90;;;;;;4976261;28;20173;-64
2021/09/11 07:03:37;;;;;;;6.40;5.63;;;18.80;99.90;;;;;;4975035;28;20302;-67
2021/09/11 07:06:04;;;;;;;9.53;6.17;;;18.90;99.90;;;;;;4975374;28;20180;-65
2021/09/11 07:08:31;;;;;;;3.93;3.57;;;19.00;99.90;;;;;;4974314;28;20204;-64
2021/09/11 07:10:56;;;;;;;6.07;5.40;;;19.10;99.90;;;;;;4975141;28;20412;-64
2021/09/11 07:13:22;;;;;;;4.83;4.33;;;19.10;99.90;;;;;;4975090;28;20462;-64
2021/09/11 07:15:48;;;;;;;4.00;3.70;;;19.20;99.90;;;;;;4975863;28;20184;-65
2021/09/11 07:18:13;;;;;;;4.10;3.70;;;19.30;99.90;;;;;;4975865;28;20180;-61
2021/09/11 07:20:39;;;;;;;3.77;3.47;;;19.50;99.90;;;;;;4976528;28;20171;-65
2021/09/11 07:23:05;;;;;;;4.30;3.87;;;19.60;99.90;;;;;;4959046;28;20180;-61
2021/09/11 07:25:30;;;;;;;4.20;3.80;;;19.70;99.90;;;;;;4976045;28;20176;-64
2021/09/11 07:27:56;;;;;;;4.03;3.63;;;19.80;99.90;;;;;;4958780;28;20194;-63
2021/09/11 07:30:23;;;;;;;3.67;3.37;;;19.80;99.90;;;;;;4976415;28;20192;-65
2021/09/11 07:32:49;;;;;;;4.10;3.70;;;19.80;99.90;;;;;;4976582;28;20207;-62
2021/09/11 07:35:15;;;;;;;3.80;3.50;;;19.70;99.90;;;;;;4976536;28;20395;-64
2021/09/11 07:37:41;;;;;;;3.97;3.67;;;19.90;99.90;;;;;;4975433;28;20495;-65
2021/09/11 07:40:08;;;;;;;5.60;4.30;;;20.00;99.90;;;;;;4975856;28;20547;-65
2021/09/11 07:42:34;;;;;;;3.63;3.33;;;20.00;99.90;;;;;;4976442;28;20172;-64
2021/09/11 07:44:59;;;;;;;3.63;3.27;;;20.10;99.90;;;;;;4976416;28;20413;-65
2021/09/11 07:47:25;;;;;;;3.90;3.60;;;20.10;99.90;;;;;;4975879;28;20402;-67
2021/09/11 07:49:51;;;;;;;5.23;4.73;;;20.30;99.90;;;;;;4976258;28;20204;-63
2021/09/11 07:52:17;;;;;;;4.50;4.10;;;20.60;99.90;;;;;;4976292;28;20193;-63
2021/09/11 07:54:42;;;;;;;4.40;4.00;;;20.80;99.90;;;;;;4975469;28;20185;-62
2021/09/11 07:57:08;;;;;;;3.60;3.20;;;21.10;99.90;;;;;;4975393;28;20391;-68
2021/09/11 07:59:35;;;;;;;4.03;3.63;;;21.40;99.90;;;;;;4975913;28;20550;-62
2021/09/11 08:02:01;;;;;;;3.47;3.17;;;21.60;99.90;;;;;;4975966;28;20179;-67
2021/09/11 08:04:27;;;;;;;3.90;3.60;;;21.80;99.90;;;;;;4975763;28;20411;-63
2021/09/11 08:06:53;;;;;;;4.10;3.80;;;21.90;99.90;;;;;;4975436;28;20382;-65
2021/09/11 08:09:18;;;;;;;3.77;3.40;;;21.80;99.90;;;;;;4974982;28;20232;-63
2021/09/11 08:11:44;;;;;;;4.93;3.40;;;21.60;99.90;;;;;;4976104;28;20227;-64
2021/09/11 08:14:10;;;;;;;4.00;3.30;;;21.50;99.90;;;;;;4975895;28;20242;-64
2021/09/11 08:16:36;;;;;;;3.50;2.80;;;21.40;99.90;;;;;;4975842;28;20233;-63
2021/09/11 08:19:02;;;;;;;3.87;3.47;;;21.40;99.90;;;;;;4958252;28;20446;-66
2021/09/11 08:21:28;;;;;;;3.30;3.00;;;21.50;99.90;;;;;;4975657;28;20284;-61
2021/09/11 08:23:54;;;;;;;8.87;6.77;;;21.70;99.90;;;;;;4974977;28;20775;-62
2021/09/11 08:26:19;;;;;;;3.10;2.80;;;22.00;99.90;;;;;;4975400;28;20416;-63
2021/09/11 08:28:45;;;;;;;2.77;2.60;;;22.20;99.90;;;;;;4974675;28;20251;-67
2021/09/11 08:31:13;;;;;;;3.13;2.57;;;22.30;99.90;;;;;;4975092;28;20183;-65
2021/09/11 08:33:40;;;;;;;2.43;2.23;;;22.40;99.90;;;;;;4975046;28;20575;-63
2021/09/11 08:36:05;;;;;;;4.17;2.40;;;22.50;99.90;;;;;;4975147;28;20426;-61
2021/09/11 08:38:34;;;;;;;3.57;2.53;;;22.70;99.90;;;;;;4974012;28;20426;-66
2021/09/11 08:41:03;;;;;;;2.67;2.47;;;22.80;99.90;;;;;;4974936;28;20247;-63
2021/09/11 08:43:29;;;;;;;3.63;3.00;;;22.80;99.90;;;;;;4958139;28;20431;-63
2021/09/11 08:45:56;;;;;;;2.53;2.33;;;22.70;99.90;;;;;;4975201;28;20426;-63
2021/09/11 08:48:24;;;;;;;2.97;2.73;;;22.80;99.90;;;;;;4974846;28;20460;-66
2021/09/11 08:50:51;;;;;;;3.30;2.93;;;22.90;99.90;;;;;;4974875;28;20250;-63
2021/09/11 08:53:16;;;;;;;2.83;2.33;;;23.00;99.90;;;;;;4974483;28;20430;-66
2021/09/11 08:55:42;;;;;;;3.60;3.30;;;23.20;99.90;;;;;;4974957;28;20517;-65
2021/09/11 08:58:08;;;;;;;2.87;2.67;;;23.60;99.90;;;;;;4973583;28;20276;-64
2021/09/11 09:00:54;;;;;;;3.37;3.07;;;24.10;99.90;;;;;;4974486;28;20236;-64
2021/09/11 09:03:26;;;;;;;2.87;2.67;;;25.20;99.90;;;;;;4974780;28;20426;-64
2021/09/11 09:05:52;;;;;;;2.77;2.57;;;26.30;99.90;;;;;;4974783;28;20420;-61
2021/09/11 09:08:30;;;;;;;6.23;2.47;;;27.20;99.90;;;;;;4973707;28;20932;-66
2021/09/11 09:11:12;;;;;;;2.77;2.20;;;27.90;99.90;;;;;;4974291;28;20198;-64
2021/09/11 09:13:57;;;;;;;3.77;2.50;;;28.00;99.90;;;;;;4974042;28;20470;-67
2021/09/11 09:16:24;;;;;;;3.00;2.67;;;28.00;99.90;;;;;;4974528;28;20738;-63
2021/09/11 09:18:50;;;;;;;3.10;2.60;;;27.80;99.90;;;;;;4974021;28;20403;-68
2021/09/11 09:21:18;;;;;;;2.73;2.50;;;27.60;99.90;;;;;;4956909;28;20411;-61
2021/09/11 09:23:54;;;;;;;6.30;4.90;;;27.20;99.90;;;;;;4974348;28;20419;-62
2021/09/11 09:26:20;;;;;;;2.97;2.77;;;26.90;99.90;;;;;;4974194;28;20393;-66
2021/09/11 09:29:04;;;;;;;5.27;4.70;;;26.60;99.90;;;;;;4973578;28;20535;-67
2021/09/11 09:31:30;;;;;;;10.17;5.43;;;26.40;99.90;;;;;;4974530;28;20419;-64
2021/09/11 09:33:56;;;;;;;4.87;4.47;;;26.00;99.90;;;;;;4974376;28;20462;-66
2021/09/11 09:36:22;;;;;;;2.40;2.20;;;25.70;99.90;;;;;;4974237;28;20901;-61
2021/09/11 09:38:59;;;;;;;3.40;3.00;;;25.60;99.90;;;;;;4973629;28;20427;-66
2021/09/11 09:41:24;;;;;;;2.53;2.33;;;25.60;99.90;;;;;;4974277;28;20169;-64
2021/09/11 09:43:51;;;;;;;2.60;2.40;;;25.60;99.90;;;;;;4974187;28;20412;-64
2021/09/11 09:46:18;;;;;;;2.30;2.10;;;25.60;99.90;;;;;;4974289;28;20190;-64
2021/09/11 09:48:46;;;;;;;2.97;2.70;;;25.60;99.90;;;;;;4956370;28;20428;-66
2021/09/11 09:51:21;;;;;;;2.67;2.47;;;25.70;99.90;;;;;;4974224;28;20508;-63
2021/09/11 09:53:51;;;;;;;2.23;2.03;;;26.00;99.90;;;;;;4974248;28;20459;-64
2021/09/11 09:56:16;;;;;;;2.03;1.93;;;26.60;99.90;;;;;;4974081;28;20502;-64
2021/09/11 09:58:42;;;;;;;2.60;2.40;;;27.10;99.90;;;;;;4973261;28;20490;-65
2021/09/11 10:01:08;;;;;;;2.60;2.10;;;27.30;99.90;;;;;;4956704;28;20204;-61
2021/09/11 10:03:34;;;;;;;2.20;2.00;;;28.00;99.90;;;;;;4974111;28;20188;-64
2021/09/11 10:06:05;;;;;;;2.10;2.00;;;28.40;98.90;;;;;;4974066;28;20266;-61
2021/09/11 10:08:36;;;;;;;2.67;2.47;;;28.60;98.10;;;;;;4973680;28;20204;-65
2021/09/11 10:11:09;;;;;;;2.60;2.40;;;28.50;99.40;;;;;;4975517;28;20867;-63
2021/09/11 10:13:36;;;;;;;2.47;2.30;;;28.10;99.50;;;;;;4977433;28;20773;-65
2021/09/11 10:16:09;;;;;;;3.00;2.70;;;27.80;99.90;;;;;;4977815;28;20908;-64
2021/09/11 10:18:38;;;;;;;4.00;2.43;;;27.60;98.20;;;;;;4976904;28;20435;-65
2021/09/11 10:21:12;;;;;;;1.87;1.77;;;27.20;99.90;;;;;;4978154;28;20420;-62
2021/09/11 10:23:39;;;;;;;2.60;2.30;;;27.00;99.40;;;;;;4977602;28;20398;-63
2021/09/11 10:26:05;;;;;;;11.40;5.53;;;26.70;99.90;;;;;;4977648;28;20423;-63
2021/09/11 10:28:30;;;;;;;2.13;2.03;;;26.50;99.90;;;;;;4976731;28;20465;-62
2021/09/11 10:31:12;;;;;;;3.00;2.23;;;26.40;99.90;;;;;;4977625;28;20188;-62
2021/09/11 10:33:42;;;;;;;2.10;2.00;;;26.30;99.90;;;;;;4977437;28;20222;-67
2021/09/11 10:36:43;;;;;;;2.30;2.13;;;26.20;99.90;;;;;;4977389;28;20427;-62
2021/09/11 10:39:09;;;;;;;2.83;2.40;;;26.10;99.90;;;;;;4976954;28;20425;-65
2021/09/11 10:41:36;;;;;;;2.57;2.37;;;26.20;99.90;;;;;;4977232;28;20485;-62
2021/09/11 10:44:08;;;;;;;2.53;2.33;;;26.70;99.90;;;;;;4977308;28;20406;-67
2021/09/11 10:46:52;;;;;;;2.53;2.37;;;27.10;99.90;;;;;;4977151;28;20424;-65
2021/09/11 10:49:29;;;;;;;2.50;2.30;;;27.30;99.90;;;;;;4976954;28;20450;-66
2021/09/11 10:52:09;;;;;;;3.27;2.37;;;27.20;99.70;;;;;;4977047;28;20398;-64
2021/09/11 10:54:42;;;;;;;2.60;2.40;;;26.90;99.90;;;;;;4976893;28;20420;-62
2021/09/11 10:57:18;;;;;;;2.40;2.20;;;26.60;99.80;;;;;;4976403;28;20401;-66
2021/09/11 10:59:47;;;;;;;2.97;2.67;;;26.20;99.90;;;;;;4976695;28;20533;-62
2021/09/11 11:02:36;;;;;;;2.73;2.50;;;26.00;99.90;;;;;;4977089;28;20427;-65
2021/09/11 11:05:10;;;;;;;3.00;2.20;;;25.80;99.90;;;;;;4977008;28;20383;-66
2021/09/11 11:07:48;;;;;;;2.70;2.50;;;25.60;99.90;;;;;;4976457;28;20412;-62
2021/09/11 11:10:17;;;;;;;2.40;2.30;;;25.50;99.90;;;;;;4976800;28;20757;-65
2021/09/11 11:12:52;;;;;;;1.70;1.60;;;25.40;99.90;;;;;;4976165;28;20555;-64
2021/09/11 11:15:27;;;;;;;1.93;1.83;;;25.40;99.90;;;;;;4976427;28;20428;-64
2021/09/11 11:17:53;;;;;;;2.13;2.03;;;25.40;99.90;;;;;;4959164;28;20407;-61
2021/09/11 11:20:24;;;;;;;2.50;2.30;;;25.50;99.90;;;;;;4976421;28;20415;-65
2021/09/11 11:22:50;;;;;;;1.93;1.83;;;25.50;99.90;;;;;;4976105;28;20422;-65
2021/09/11 11:25:28;;;;;;;3.37;3.07;;;25.50;99.90;;;;;;4959043;28;20914;-65
2021/09/11 11:27:53;;;;;;;2.33;1.63;;;25.60;99.90;;;;;;4975968;28;20455;-64
2021/09/11 11:30:21;;;;;;;1.97;1.80;;;25.50;99.90;;;;;;4976165;28;20427;-66
2021/09/11 11:32:47;;;;;;;2.30;2.13;;;25.40;99.90;;;;;;4976362;28;20210;-61
2021/09/11 11:35:14;;;;;;;2.50;2.30;;;25.10;99.90;;;;;;4976386;28;20508;-67
2021/09/11 11:37:40;;;;;;;2.33;2.13;;;25.00;99.90;;;;;;4975596;28;20382;-65
2021/09/11 11:40:11;;;;;;;3.13;2.60;;;25.00;99.90;;;;;;4976189;28;20543;-64
2021/09/11 11:42:38;;;;;;;2.30;2.10;;;24.90;99.90;;;;;;4975886;28;20432;-65
2021/09/11 11:45:10;;;;;;;1.90;1.80;;;24.80;99.90;;;;;;4958817;28;20451;-63
2021/09/11 11:48:05;;;;;;;3.40;3.10;;;24.60;99.90;;;;;;4958364;28;20423;-64
2021/09/11 11:50:33;;;;;;;2.10;1.90;;;24.50;99.90;;;;;;4974615;28;20586;-67
2021/09/11 11:53:00;;;;;;;3.43;2.80;;;24.40;99.90;;;;;;4976147;28;20469;-63
2021/09/11 11:55:29;;;;;;;4.20;2.30;;;24.20;99.90;;;;;;4976004;28;20805;-66
2021/09/11 11:58:14;;;;;;;1.97;1.87;;;24.00;99.90;;;;;;4957950;28;21008;-63
2021/09/11 12:00:51;;;;;;;3.17;2.80;;;23.90;99.90;;;;;;4975950;28;20914;-66
2021/09/11 12:03:37;;;;;;;2.93;2.73;;;23.70;99.90;;;;;;4975820;28;20423;-66
2021/09/11 12:06:04;;;;;;;2.90;2.70;;;23.50;99.90;;;;;;4975960;28;20718;-62
2021/09/11 12:08:36;;;;;;;2.90;2.60;;;23.40;99.90;;;;;;4975298;28;20822;-65
2021/09/11 12:11:03;;;;;;;2.77;2.47;;;23.10;99.90;;;;;;4975765;28;20416;-63
2021/09/11 12:13:29;;;;;;;2.77;2.27;;;22.80;99.90;;;;;;4975204;28;20443;-65
2021/09/11 12:15:55;;;;;;;2.50;2.30;;;22.50;99.90;;;;;;4975753;28;20455;-62
2021/09/11 12:18:21;;;;;;;4.73;3.30;;;22.30;99.90;;;;;;4975361;28;20421;-64
2021/09/11 12:20:52;;;;;;;3.00;2.53;;;22.10;99.90;;;;;;4975888;28;20233;-64
2021/09/11 12:23:30;;;;;;;2.73;2.53;;;22.00;99.90;;;;;;4975686;28;20335;-62
2021/09/11 12:25:59;;;;;;;2.77;2.57;;;22.00;99.90;;;;;;4975759;28;20399;-62
2021/09/11 12:28:51;;;;;;;3.60;2.37;;;22.00;99.90;;;;;;4974595;28;20426;-64
2021/09/11 12:31:20;;;;;;;2.47;2.30;;;22.10;99.90;;;;;;4975261;28;20423;-66
2021/09/11 12:33:54;;;;;;;2.73;2.43;;;22.30;99.90;;;;;;4957328;28;20495;-67
2021/09/11 12:36:29;;;;;;;2.50;2.03;;;22.50;99.90;;;;;;4975734;28;20479;-62
2021/09/11 12:38:58;;;;;;;1.50;1.40;;;22.70;99.90;;;;;;4973941;28;20421;-64
2021/09/11 12:41:23;;;;;;;1.10;1.00;;;22.70;99.90;;;;;;4957326;28;20168;-64
2021/09/11 12:43:49;;;;;;;1.23;1.10;;;22.60;99.90;;;;;;4975239;28;20933;-68
2021/09/11 12:46:47;;;;;;;1.57;1.47;;;22.60;99.90;;;;;;4975273;28;20206;-65